createdAt,value
2018-10-16T00:02:21.319Z,100497.49
2018-10-16T00:04:49.073Z,100500.34
2018-10-16T00:07:16.813Z,100507.34
2018-10-16T00:09:44.577Z,100514.08
2018-10-16T00:12:12.296Z,100511.93
2018-10-16T00:14:39.989Z,100512.77
2018-10-16T00:17:07.637Z,100518.28
2018-10-16T00:19:35.323Z,100508.28
2018-10-16T00:22:03.174Z,100505.17
2018-10-16T00:24:30.899Z,100504.80
2018-10-16T00:26:58.641Z,100503.25
2018-10-16T00:29:26.325Z,100511.53
2018-10-16T00:31:54.084Z,100502.95
2018-10-16T00:34:21.805Z,100508.07
2018-10-16T00:36:49.497Z,100511.45
2018-10-16T00:39:17.233Z,100521.70
2018-10-16T00:41:50.813Z,100515.13
2018-10-16T00:44:18.473Z,100515.95
2018-10-16T00:46:46.245Z,100514.97
2018-10-16T00:49:14.040Z,100514.14
2018-10-16T00:51:41.721Z,100522.25
2018-10-16T00:54:09.582Z,100527.30
2018-10-16T00:56:39.454Z,100526.09
2018-10-16T00:59:07.369Z,100544.17
2018-10-16T01:01:35.293Z,100535.21
2018-10-16T01:04:04.996Z,100533.45
2018-10-16T01:06:33.654Z,100538.95
2018-10-16T01:09:01.470Z,100542.43
2018-10-16T01:11:29.187Z,100545.10
2018-10-16T01:13:57.472Z,100545.45
2018-10-16T01:16:25.324Z,100548.81
2018-10-16T01:18:53.060Z,100553.44
2018-10-16T01:21:21.928Z,100554.21
2018-10-16T01:23:49.674Z,100562.41
2018-10-16T01:26:17.417Z,100568.93
2018-10-16T01:28:45.446Z,100567.27
2018-10-16T01:31:13.157Z,100571.81
2018-10-16T01:33:40.872Z,100570.68
2018-10-16T01:36:10.120Z,100569.08
2018-10-16T01:38:37.936Z,100577.11
2018-10-16T01:41:06.358Z,100580.55
2018-10-16T01:43:34.040Z,100579.92
2018-10-16T01:46:01.869Z,100574.58
2018-10-16T01:48:29.561Z,100568.34
2018-10-16T01:50:57.301Z,100562.72
2018-10-16T01:53:25.020Z,100557.25
2018-10-16T01:55:52.866Z,100559.63
2018-10-16T01:58:20.701Z,100555.77
2018-10-16T02:00:48.440Z,100555.59
2018-10-16T02:03:16.237Z,100565.00
2018-10-16T02:05:43.995Z,100569.12
2018-10-16T02:08:11.770Z,100569.71
2018-10-16T02:10:39.489Z,100568.17
2018-10-16T02:13:07.253Z,100573.34
2018-10-16T02:15:35.049Z,100574.78
2018-10-16T02:18:02.705Z,100571.38
2018-10-16T02:20:30.400Z,100579.78
2018-10-16T02:22:58.122Z,100575.54
2018-10-16T02:25:25.761Z,100579.13
2018-10-16T02:27:53.476Z,100577.37
2018-10-16T02:30:21.161Z,100583.50
2018-10-16T02:32:48.987Z,100584.49
2018-10-16T02:35:16.656Z,100583.33
2018-10-16T02:37:44.393Z,100583.96
2018-10-16T02:40:11.910Z,100586.52
2018-10-16T02:42:40.118Z,100590.45
2018-10-16T02:45:09.295Z,100593.88
2018-10-16T02:47:37.162Z,100590.28
2018-10-16T02:50:05.180Z,100588.19
2018-10-16T02:52:32.929Z,100587.42
2018-10-16T02:55:00.682Z,100592.81
2018-10-16T02:57:28.489Z,100591.75
2018-10-16T02:59:56.393Z,100598.23
2018-10-16T03:02:24.389Z,100596.26
2018-10-16T03:04:52.096Z,100597.33
2018-10-16T03:07:19.791Z,100597.02
2018-10-16T03:09:47.502Z,100596.80
2018-10-16T03:12:15.197Z,100600.23
2018-10-16T03:14:42.863Z,100598.80
2018-10-16T03:17:10.613Z,100604.26
2018-10-16T03:19:38.456Z,100603.31
2018-10-16T03:22:06.542Z,100606.86
2018-10-16T03:24:34.221Z,100614.70
2018-10-16T03:27:01.997Z,100606.28
2018-10-16T03:29:29.688Z,100607.34
2018-10-16T03:31:57.413Z,100615.34
2018-10-16T03:34:25.103Z,100622.56
2018-10-16T03:36:52.868Z,100620.54
2018-10-16T03:39:20.583Z,100624.63
2018-10-16T03:41:48.385Z,100621.83
2018-10-16T03:44:16.014Z,100625.94
2018-10-16T03:46:43.689Z,100629.78
2018-10-16T03:49:11.402Z,100627.37
2018-10-16T03:51:39.880Z,100634.64
2018-10-16T03:54:08.165Z,100637.89
2018-10-16T03:56:35.849Z,100632.75
2018-10-16T03:59:04.117Z,100639.03
2018-10-16T04:01:31.862Z,100635.84
2018-10-16T04:03:59.601Z,100633.80
2018-10-16T04:06:34.104Z,100643.34
2018-10-16T04:09:01.789Z,100638.77
2018-10-16T04:11:29.506Z,100642.45
2018-10-16T04:13:57.254Z,100640.66
2018-10-16T04:16:24.954Z,100648.53
2018-10-16T04:18:55.951Z,100650.28
2018-10-16T04:21:28.333Z,100649.67
2018-10-16T04:23:56.354Z,100651.94
2018-10-16T04:26:24.081Z,100654.86
2018-10-16T04:28:51.765Z,100657.77
2018-10-16T04:31:19.511Z,100662.01
2018-10-16T04:33:47.261Z,100663.03
2018-10-16T04:36:15.025Z,100659.77
2018-10-16T04:38:42.742Z,100659.25
2018-10-16T04:41:10.516Z,100664.13
2018-10-16T04:43:38.234Z,100662.95
2018-10-16T04:46:05.901Z,100661.44
2018-10-16T04:48:39.699Z,100660.08
2018-10-16T04:51:15.909Z,100668.14
2018-10-16T04:53:43.973Z,100667.94
2018-10-16T04:56:11.665Z,100670.55
2018-10-16T04:58:39.437Z,100663.94
2018-10-16T05:01:07.276Z,100661.74
2018-10-16T05:03:35.028Z,100670.47
2018-10-16T05:06:03.000Z,100670.47
2018-10-16T05:08:30.643Z,100671.39
2018-10-16T05:10:58.328Z,100669.11
2018-10-16T05:13:26.029Z,100671.53
2018-10-16T05:15:54.203Z,100675.92
2018-10-16T05:18:21.917Z,100672.78
2018-10-16T05:20:49.662Z,100674.06
2018-10-16T05:23:17.376Z,100669.45
2018-10-16T05:25:45.125Z,100672.70
2018-10-16T05:28:12.853Z,100679.20
2018-10-16T05:30:40.502Z,100676.70
2018-10-16T05:33:08.130Z,100688.09
2018-10-16T05:35:35.859Z,100690.52
2018-10-16T05:38:03.884Z,100689.27
2018-10-16T05:40:31.585Z,100693.88
2018-10-16T05:42:59.261Z,100692.91
2018-10-16T05:45:28.475Z,100693.84
2018-10-16T05:47:56.225Z,100698.69
2018-10-16T05:50:23.893Z,100701.66
2018-10-16T05:52:51.583Z,100701.23
2018-10-16T05:55:19.241Z,100704.98
2018-10-16T05:57:46.955Z,100705.82
2018-10-16T06:00:39.825Z,100700.38
2018-10-16T06:03:07.560Z,100699.96
2018-10-16T06:05:35.608Z,100698.46
2018-10-16T06:08:03.532Z,100699.84
2018-10-16T06:10:31.286Z,100700.35
2018-10-16T06:12:58.948Z,100706.44
2018-10-16T06:15:26.670Z,100707.80
2018-10-16T06:17:54.413Z,100704.44
2018-10-16T06:20:22.187Z,100703.80
2018-10-16T06:22:49.925Z,100710.89
2018-10-16T06:25:17.608Z,100712.67
2018-10-16T06:27:45.433Z,100714.75
2018-10-16T06:30:13.237Z,100718.84
2018-10-16T06:32:40.967Z,100723.75
2018-10-16T06:35:09.800Z,100724.09
2018-10-16T06:37:37.673Z,100727.09
2018-10-16T06:40:06.777Z,100726.76
2018-10-16T06:42:34.748Z,100730.09
2018-10-16T06:45:02.460Z,100729.75
2018-10-16T06:47:30.307Z,100729.95
2018-10-16T06:49:57.915Z,100733.89
2018-10-16T06:52:25.649Z,100742.78
2018-10-16T06:54:53.420Z,100737.14
2018-10-16T06:57:21.134Z,100738.16
2018-10-16T06:59:48.796Z,100742.74
2018-10-16T07:02:16.489Z,100739.52
2018-10-16T07:04:44.792Z,100744.81
2018-10-16T07:07:12.512Z,100748.39
2018-10-16T07:09:40.441Z,100752.67
2018-10-16T07:12:09.104Z,100752.49
2018-10-16T07:14:36.973Z,100750.95
2018-10-16T07:17:04.845Z,100752.27
2018-10-16T07:19:32.541Z,100751.14
2018-10-16T07:22:00.685Z,100763.47
2018-10-16T07:24:28.425Z,100766.43
2018-10-16T07:26:56.091Z,100761.21
2018-10-16T07:29:23.790Z,100764.71
2018-10-16T07:31:51.523Z,100763.81
2018-10-16T07:34:20.493Z,100770.88
2018-10-16T07:36:48.129Z,100771.94
2018-10-16T07:39:15.849Z,100778.33
2018-10-16T07:41:43.536Z,100768.77
2018-10-16T07:44:11.313Z,100778.19
2018-10-16T07:46:39.010Z,100777.65
2018-10-16T07:49:07.693Z,100774.01
2018-10-16T07:51:35.705Z,100773.61
2018-10-16T07:54:03.901Z,100774.55
2018-10-16T07:56:31.573Z,100778.02
2018-10-16T07:58:59.265Z,100785.52
2018-10-16T08:01:27.325Z,100789.02
2018-10-16T08:03:55.006Z,100791.34
2018-10-16T08:06:22.721Z,100791.41
2018-10-16T08:08:50.477Z,100781.98
2018-10-16T08:11:18.137Z,100786.47
2018-10-16T08:13:46.015Z,100789.54
2018-10-16T08:16:13.761Z,100786.03
2018-10-16T08:18:41.550Z,100787.78
2018-10-16T08:21:09.241Z,100783.98
2018-10-16T08:23:36.989Z,100787.80
2018-10-16T08:26:06.448Z,100789.37
2018-10-16T08:28:34.181Z,100795.96
2018-10-16T08:31:02.213Z,100793.95
2018-10-16T08:33:30.125Z,100790.85
2018-10-16T08:35:57.938Z,100793.91
2018-10-16T08:39:16.971Z,100791.99
2018-10-16T08:44:10.617Z,100796.28
2018-10-16T08:46:55.865Z,100798.20
2018-10-16T08:49:40.873Z,100794.56
2018-10-16T08:52:08.597Z,100786.13
2018-10-16T08:54:36.306Z,100787.03
2018-10-16T08:57:04.269Z,100789.48
2018-10-16T08:59:31.978Z,100787.03
2018-10-16T09:02:00.265Z,100792.59
2018-10-16T09:04:27.954Z,100789.44
2018-10-16T09:06:55.661Z,100789.45
2018-10-16T09:09:23.321Z,100784.78
2018-10-16T09:11:51.054Z,100784.75
2018-10-16T09:14:18.825Z,100785.00
2018-10-16T09:16:46.497Z,100789.70
2018-10-16T09:19:14.267Z,100792.00
2018-10-16T09:21:41.929Z,100792.16
2018-10-16T09:24:09.560Z,100793.77
2018-10-16T09:26:37.240Z,100787.38
2018-10-16T09:29:05.110Z,100788.02
2018-10-16T09:31:32.797Z,100785.97
2018-10-16T09:34:00.549Z,100779.63
2018-10-16T09:36:28.270Z,100781.50
2018-10-16T09:38:55.977Z,100773.98
2018-10-16T09:41:23.659Z,100778.45
2018-10-16T09:43:51.362Z,100771.19
2018-10-16T09:46:19.127Z,100780.41
2018-10-16T09:48:46.820Z,100783.71
2018-10-16T09:51:14.458Z,100771.55
2018-10-16T09:53:42.192Z,100777.70
2018-10-16T09:56:09.873Z,100781.16
2018-10-16T09:58:37.606Z,100788.47
2018-10-16T10:01:11.089Z,100783.50
2018-10-16T10:03:38.772Z,100778.95
2018-10-16T10:06:06.557Z,100777.44
2018-10-16T10:08:34.275Z,100775.70
2018-10-16T10:11:02.025Z,100773.64
2018-10-16T10:13:29.709Z,100780.66
2018-10-16T10:15:57.448Z,100768.19
2018-10-16T10:18:25.134Z,100772.16
2018-10-16T10:20:52.766Z,100770.16
2018-10-16T10:23:20.537Z,100763.89
2018-10-16T10:25:52.246Z,100764.09
2018-10-16T10:28:20.068Z,100760.29
2018-10-16T10:30:47.786Z,100755.42
2018-10-16T10:33:15.540Z,100752.90
2018-10-16T10:35:43.277Z,100758.82
2018-10-16T10:38:11.045Z,100750.52
2018-10-16T10:40:38.785Z,100741.84
2018-10-16T10:43:06.590Z,100738.80
2018-10-16T10:45:34.332Z,100737.69
2018-10-16T10:48:04.020Z,100735.56
2018-10-16T10:50:31.897Z,100729.77
2018-10-16T10:52:59.404Z,100725.38
2018-10-16T10:55:27.099Z,100731.42
2018-10-16T10:57:54.866Z,100727.63
2018-10-16T11:00:22.550Z,100726.63
2018-10-16T11:02:50.285Z,100720.27
2018-10-16T11:05:17.977Z,100717.36
2018-10-16T11:07:45.696Z,100709.45
2018-10-16T11:10:13.873Z,100701.61
2018-10-16T11:12:42.684Z,100708.72
2018-10-16T11:15:10.430Z,100703.60
2018-10-16T11:17:38.599Z,100701.63
2018-10-16T11:20:08.320Z,100698.31
2018-10-16T11:22:36.323Z,100692.59
2018-10-16T11:25:05.630Z,100697.56
2018-10-16T11:27:33.350Z,100695.58
2018-10-16T11:30:03.406Z,100686.27
2018-10-16T11:32:31.101Z,100688.65
2018-10-16T11:34:58.732Z,100682.32
2018-10-16T11:37:26.925Z,100678.33
2018-10-16T11:39:55.233Z,100689.95
2018-10-16T11:42:24.520Z,100680.27
2018-10-16T11:44:52.240Z,100677.41
2018-10-16T11:47:19.933Z,100677.56
2018-10-16T11:49:47.702Z,100677.70
2018-10-16T11:52:15.489Z,100680.37
2018-10-16T11:54:43.041Z,100686.79
2018-10-16T11:57:10.709Z,100677.78
2018-10-16T11:59:38.437Z,100679.59
2018-10-16T12:02:06.167Z,100676.11
2018-10-16T12:04:33.794Z,100680.14
2018-10-16T12:07:01.683Z,100673.18
2018-10-16T12:09:29.277Z,100673.59
2018-10-16T12:11:56.957Z,100667.84
2018-10-16T12:14:26.021Z,100672.38
2018-10-16T12:17:00.454Z,100666.15
2018-10-16T12:19:33.193Z,100679.15
2018-10-16T12:22:00.869Z,100669.04
2018-10-16T12:24:28.584Z,100666.85
2018-10-16T12:26:56.292Z,100665.41
2018-10-16T12:29:24.040Z,100657.58
2018-10-16T12:31:53.001Z,100662.45
2018-10-16T12:34:21.660Z,100664.40
2018-10-16T12:36:49.389Z,100663.17
2018-10-16T12:39:17.100Z,100658.75
2018-10-16T12:41:45.760Z,100662.96
2018-10-16T12:44:13.456Z,100665.25
2018-10-16T12:46:41.187Z,100670.51
2018-10-16T12:49:08.891Z,100666.52
2018-10-16T12:51:36.597Z,100667.30
2018-10-16T12:54:04.653Z,100662.95
2018-10-16T12:56:35.693Z,100666.62
2018-10-16T12:59:03.711Z,100669.16
2018-10-16T13:01:31.425Z,100666.11
2018-10-16T13:03:59.041Z,100671.56
2018-10-16T13:06:26.792Z,100664.38
2018-10-16T13:08:55.565Z,100667.41
2018-10-16T13:11:23.297Z,100662.97
2018-10-16T13:13:51.220Z,100665.77
2018-10-16T13:16:19.288Z,100663.70
2018-10-16T13:18:47.061Z,100670.20
2018-10-16T13:21:16.309Z,100669.95
2018-10-16T13:23:43.971Z,100662.53
2018-10-16T13:26:14.713Z,100657.13
2018-10-16T13:28:42.418Z,100654.83
2018-10-16T13:31:10.096Z,100656.80
2018-10-16T13:33:37.933Z,100656.80
2018-10-16T13:36:05.704Z,100657.37
2018-10-16T13:38:33.448Z,100653.00
2018-10-16T13:41:01.141Z,100651.84
2018-10-16T13:43:28.931Z,100652.17
2018-10-16T13:45:56.713Z,100652.75
2018-10-16T13:48:24.375Z,100655.22
2018-10-16T13:50:52.116Z,100656.86
2018-10-16T13:53:20.849Z,100653.08
2018-10-16T13:55:48.509Z,100654.34
2018-10-16T13:58:16.230Z,100653.67
2018-10-16T14:00:43.941Z,100653.59
2018-10-16T14:03:11.585Z,100649.97
2018-10-16T14:05:39.381Z,100657.48
2018-10-16T14:08:07.117Z,100657.97
2018-10-16T14:10:34.692Z,100661.23
2018-10-16T14:13:02.442Z,100657.84
2018-10-16T14:15:30.121Z,100659.72
2018-10-16T14:17:57.849Z,100652.54
2018-10-16T14:20:25.644Z,100656.16
2018-10-16T14:22:53.322Z,100649.41
2018-10-16T14:25:21.109Z,100651.96
2018-10-16T14:27:48.801Z,100652.62
2018-10-16T14:30:16.510Z,100653.25
2018-10-16T14:32:44.360Z,100649.34
2018-10-16T14:35:12.702Z,100652.38
2018-10-16T14:37:40.561Z,100648.77
2018-10-16T14:40:11.024Z,100648.43
2018-10-16T14:42:38.876Z,100645.64
2018-10-16T14:45:07.997Z,100642.52
2018-10-16T14:47:35.692Z,100646.08
2018-10-16T14:50:03.740Z,100649.36
2018-10-16T14:52:31.353Z,100646.92
2018-10-16T14:54:59.188Z,100645.62
2018-10-16T14:57:27.001Z,100640.37
2018-10-16T14:59:54.612Z,100649.20
2018-10-16T15:02:22.333Z,100649.06
2018-10-16T15:04:50.060Z,100647.09
2018-10-16T15:07:17.977Z,100650.31
2018-10-16T15:09:45.679Z,100648.25
2018-10-16T15:12:13.397Z,100645.00
2018-10-16T15:14:41.229Z,100648.53
2018-10-16T15:17:08.983Z,100651.35
2018-10-16T15:19:36.724Z,100649.52
2018-10-16T15:22:13.329Z,100645.56
2018-10-16T15:24:41.305Z,100643.87
2018-10-16T15:27:09.006Z,100650.63
2018-10-16T15:29:36.728Z,100647.48
2018-10-16T15:32:04.589Z,100651.69
2018-10-16T15:34:32.341Z,100650.59
2018-10-16T15:37:00.113Z,100650.50
2018-10-16T15:39:27.907Z,100647.22
2018-10-16T15:41:55.656Z,100646.40
2018-10-16T15:44:23.314Z,100650.37
2018-10-16T15:46:51.022Z,100654.42
2018-10-16T15:49:18.809Z,100654.52
2018-10-16T15:51:46.552Z,100662.86
2018-10-16T15:54:14.283Z,100663.20
2018-10-16T15:56:41.981Z,100663.86
2018-10-16T15:59:09.738Z,100663.09
2018-10-16T16:01:37.512Z,100664.37
2018-10-16T16:04:05.271Z,100666.45
2018-10-16T16:06:32.894Z,100664.53
2018-10-16T16:09:04.844Z,100668.62
2018-10-16T16:11:32.557Z,100672.98
2018-10-16T16:14:00.358Z,100683.23
2018-10-16T16:16:28.032Z,100686.36
2018-10-16T16:18:55.693Z,100688.20
2018-10-16T16:21:23.409Z,100692.59
2018-10-16T16:23:51.140Z,100693.25
2018-10-16T16:26:18.876Z,100689.64
2018-10-16T16:28:46.403Z,100692.13
2018-10-16T16:31:14.172Z,100695.20
2018-10-16T16:33:51.014Z,100698.78
2018-10-16T16:36:18.857Z,100699.69
2018-10-16T16:38:46.641Z,100703.27
2018-10-16T16:41:14.394Z,100702.84
2018-10-16T16:43:42.136Z,100702.55
2018-10-16T16:46:10.065Z,100707.48
2018-10-16T16:48:37.726Z,100705.00
2018-10-16T16:51:05.704Z,100707.86
2018-10-16T16:53:33.310Z,100713.98
2018-10-16T16:56:01.144Z,100715.56
2018-10-16T16:58:28.840Z,100713.76
2018-10-16T17:00:56.557Z,100714.39
2018-10-16T17:03:24.308Z,100718.24
2018-10-16T17:05:52.057Z,100717.34
2018-10-16T17:08:19.865Z,100713.94
2018-10-16T17:10:47.649Z,100715.42
2018-10-16T17:13:15.673Z,100718.69
2018-10-16T17:15:43.469Z,100718.23
2018-10-16T17:18:11.255Z,100722.04
2018-10-16T17:20:39.060Z,100722.35
2018-10-16T17:23:06.805Z,100725.07
2018-10-16T17:25:34.870Z,100724.13
2018-10-16T17:28:02.298Z,100726.27
2018-10-16T17:30:29.981Z,100732.73
2018-10-16T17:32:57.678Z,100730.82
2018-10-16T17:35:25.402Z,100730.11
2018-10-16T17:37:53.418Z,100737.38
2018-10-16T17:40:21.101Z,100733.89
2018-10-16T17:42:48.788Z,100732.81
2018-10-16T17:45:16.829Z,100733.41
2018-10-16T17:47:44.927Z,100733.27
2018-10-16T17:50:15.693Z,100738.87
2018-10-16T17:52:43.444Z,100732.74
2018-10-16T17:55:11.989Z,100740.37
2018-10-16T17:57:40.651Z,100737.89
2018-10-16T18:00:13.560Z,100740.16
2018-10-16T18:02:41.942Z,100745.50
2018-10-16T18:05:10.953Z,100756.23
2018-10-16T18:07:39.725Z,100753.75
2018-10-16T18:10:07.933Z,100753.81
2018-10-16T18:12:35.729Z,100758.80
2018-10-16T18:15:04.116Z,100753.85
2018-10-16T18:17:32.509Z,100758.63
2018-10-16T18:20:01.276Z,100754.81
2018-10-16T18:22:30.055Z,100758.48
2018-10-16T18:24:57.821Z,100762.13
2018-10-16T18:27:25.501Z,100756.02
2018-10-16T18:29:53.294Z,100751.03
2018-10-16T18:32:21.878Z,100758.09
2018-10-16T18:34:49.638Z,100763.41
2018-10-16T18:37:17.281Z,100761.46
2018-10-16T18:39:45.255Z,100755.13
2018-10-16T18:42:13.401Z,100757.94
2018-10-16T18:44:41.789Z,100759.36
2018-10-16T18:47:09.561Z,100760.74
2018-10-16T18:49:37.325Z,100757.77
2018-10-16T18:52:05.077Z,100755.92
2018-10-16T18:54:33.798Z,100752.64
2018-10-16T18:57:02.297Z,100757.62
2018-10-16T18:59:29.949Z,100757.39
2018-10-16T19:01:57.681Z,100759.02
2018-10-16T19:04:25.447Z,100751.91
2018-10-16T19:06:53.740Z,100762.42
2018-10-16T19:09:21.489Z,100761.10
2018-10-16T19:11:49.149Z,100769.41
2018-10-16T19:14:16.849Z,100760.86
2018-10-16T19:16:44.766Z,100769.74
2018-10-16T19:19:13.127Z,100765.36
2018-10-16T19:21:40.921Z,100758.41
2018-10-16T19:24:08.661Z,100765.39
2018-10-16T19:26:36.460Z,100767.37
2018-10-16T19:29:04.920Z,100769.08
2018-10-16T19:31:32.736Z,100764.61
2018-10-16T19:34:00.393Z,100767.98
2018-10-16T19:36:28.163Z,100767.75
2018-10-16T19:38:56.229Z,100765.23
2018-10-16T19:41:23.884Z,100769.42
2018-10-16T19:43:51.744Z,100768.33
2018-10-16T19:46:19.905Z,100768.90
2018-10-16T19:48:48.436Z,100775.24
2018-10-16T19:51:16.962Z,100771.12
2018-10-16T19:53:45.545Z,100779.16
2018-10-16T19:56:17.528Z,100778.06
2018-10-16T19:58:51.018Z,100775.83
2018-10-16T20:01:25.068Z,100783.63
2018-10-16T20:03:52.829Z,100784.73
2018-10-16T20:06:26.763Z,100788.06
2018-10-16T20:08:55.177Z,100791.34
2018-10-16T20:11:26.714Z,100789.14
2018-10-16T20:13:57.187Z,100790.81
2018-10-16T20:16:25.939Z,100797.73
2018-10-16T20:18:53.620Z,100801.05
2018-10-16T20:21:26.795Z,100801.88
2018-10-16T20:23:55.457Z,100804.38
2018-10-16T20:26:25.945Z,100806.87
2018-10-16T20:28:55.576Z,100807.14
2018-10-16T20:31:24.006Z,100805.47
2018-10-16T20:33:51.753Z,100802.42
2018-10-16T20:36:21.440Z,100799.39
2018-10-16T20:38:52.142Z,100796.63
2018-10-16T20:41:21.155Z,100800.50
2018-10-16T20:43:49.091Z,100801.33
2018-10-16T20:46:16.893Z,100798.28
2018-10-16T20:48:44.738Z,100802.95
2018-10-16T20:51:12.469Z,100790.53
2018-10-16T20:53:40.197Z,100794.96
2018-10-16T20:56:07.865Z,100792.73
2018-10-16T20:58:42.746Z,100788.02
2018-10-16T21:01:21.678Z,100784.14
2018-10-16T21:03:53.461Z,100780.55
2018-10-16T21:06:21.457Z,100787.17
2018-10-16T21:09:03.472Z,100796.56
2018-10-16T21:11:31.341Z,100799.87
2018-10-16T21:13:58.976Z,100798.97
2018-10-16T21:16:26.696Z,100801.16
2018-10-16T21:18:54.371Z,100805.55
2018-10-16T21:21:22.046Z,100806.41
2018-10-16T21:23:49.734Z,100804.48
2018-10-16T21:26:17.521Z,100798.92
2018-10-16T21:28:45.232Z,100802.45
2018-10-16T21:31:15.860Z,100812.12
2018-10-16T21:33:43.592Z,100811.81
2018-10-16T21:36:11.293Z,100810.71
2018-10-16T21:38:38.992Z,100815.06
2018-10-16T21:41:06.816Z,100813.68
2018-10-16T21:43:34.569Z,100811.72
2018-10-16T21:46:02.242Z,100808.68
2018-10-16T21:48:29.916Z,100812.23
2018-10-16T21:50:57.641Z,100806.19
2018-10-16T21:53:25.393Z,100800.09
2018-10-16T21:55:53.044Z,100796.97
2018-10-16T21:58:20.721Z,100796.92
2018-10-16T22:00:54.303Z,100797.56
2018-10-16T22:03:22.016Z,100795.35
2018-10-16T22:05:49.684Z,100791.96
2018-10-16T22:08:17.396Z,100790.77
2018-10-16T22:10:45.068Z,100799.19
2018-10-16T22:13:12.915Z,100796.87
2018-10-16T22:15:40.520Z,100796.06
2018-10-16T22:18:08.312Z,100794.07
2018-10-16T22:20:36.028Z,100800.91
2018-10-16T22:23:04.064Z,100797.86
2018-10-16T22:25:31.690Z,100797.52
2018-10-16T22:27:59.428Z,100793.66
2018-10-16T22:30:27.146Z,100797.24
2018-10-16T22:32:54.798Z,100798.28
2018-10-16T22:35:22.472Z,100797.34
2018-10-16T22:37:50.159Z,100797.89
2018-10-16T22:40:17.827Z,100802.64
2018-10-16T22:42:45.503Z,100801.21
2018-10-16T22:45:13.140Z,100807.69
2018-10-16T22:47:40.793Z,100807.41
2018-10-16T22:50:10.890Z,100804.02
2018-10-16T22:52:38.676Z,100805.11
2018-10-16T22:55:07.112Z,100798.70
2018-10-16T22:57:34.779Z,100805.52
2018-10-16T23:00:02.559Z,100798.58
2018-10-16T23:02:30.330Z,100805.91
2018-10-16T23:04:58.070Z,100802.48
2018-10-16T23:07:25.757Z,100801.44
2018-10-16T23:09:53.444Z,100796.82
2018-10-16T23:12:21.414Z,100789.84
2018-10-16T23:14:49.140Z,100787.21
2018-10-16T23:17:16.797Z,100785.50
2018-10-16T23:19:48.123Z,100778.63
2018-10-16T23:22:15.924Z,100789.60
2018-10-16T23:24:43.676Z,100790.52
2018-10-16T23:27:11.360Z,100788.52
2018-10-16T23:29:39.004Z,100789.14
2018-10-16T23:32:06.689Z,100788.48
2018-10-16T23:34:34.419Z,100784.98
2018-10-16T23:37:02.139Z,100784.81
2018-10-16T23:39:29.708Z,100785.05
2018-10-16T23:41:57.436Z,100787.96
2018-10-16T23:44:25.201Z,100791.09
2018-10-16T23:46:52.981Z,100785.33
2018-10-16T23:49:20.600Z,100791.03
2018-10-16T23:51:48.286Z,100788.82
2018-10-16T23:54:15.928Z,100789.42
2018-10-16T23:56:43.613Z,100793.55
2018-10-16T23:59:11.473Z,100785.47
